sensor_id;sensor_type;location;lat;lon;timestamp;temperature;humidity
18597;DHT22;9428;50.950;6.912;2023-07-16T00:00:37;21.10;99.90
18597;DHT22;9428;50.950;6.912;2023-07-16T00:03:24;21.10;99.90
18597;DHT22;9428;50.950;6.912;2023-07-16T00:06:13;21.10;99.90
18597;DHT22;9428;50.950;6.912;2023-07-16T00:09:00;21.00;99.90
18597;DHT22;9428;50.950;6.912;2023-07-16T00:11:48;21.00;99.90
18597;DHT22;9428;50.950;6.912;2023-07-16T00:14:36;21.00;99.90
18597;DHT22;9428;50.950;6.912;2023-07-16T00:17:23;21.00;99.90
18597;DHT22;9428;50.950;6.912;2023-07-16T00:20:11;21.00;99.90
18597;DHT22;9428;50.950;6.912;2023-07-16T00:22:59;20.90;99.90
18597;DHT22;9428;50.950;6.912;2023-07-16T00:25:47;20.80;99.90
18597;DHT22;9428;50.950;6.912;2023-07-16T00:28:34;20.90;99.90
18597;DHT22;9428;50.950;6.912;2023-07-16T00:31:21;20.90;99.90
18597;DHT22;9428;50.950;6.912;2023-07-16T00:34:08;20.80;99.90
18597;DHT22;9428;50.950;6.912;2023-07-16T00:36:55;20.90;99.90
18597;DHT22;9428;50.950;6.912;2023-07-16T00:39:48;20.70;99.90
18597;DHT22;9428;50.950;6.912;2023-07-16T00:42:35;20.90;99.90
18597;DHT22;9428;50.950;6.912;2023-07-16T00:45:23;20.80;99.90
18597;DHT22;9428;50.950;6.912;2023-07-16T00:48:10;20.70;99.90
18597;DHT22;9428;50.950;6.912;2023-07-16T00:51:00;20.70;99.90
18597;DHT22;9428;50.950;6.912;2023-07-16T00:53:48;20.70;99.90
18597;DHT22;9428;50.950;6.912;2023-07-16T00:56:37;20.70;99.90
18597;DHT22;9428;50.950;6.912;2023-07-16T00:59:24;20.70;99.90
18597;DHT22;9428;50.950;6.912;2023-07-16T01:02:12;20.60;99.90
18597;DHT22;9428;50.950;6.912;2023-07-16T01:04:59;20.70;99.90
18597;DHT22;9428;50.950;6.912;2023-07-16T01:07:53;20.40;99.90
18597;DHT22;9428;50.950;6.912;2023-07-16T01:10:42;20.50;99.90
18597;DHT22;9428;50.950;6.912;2023-07-16T01:13:30;20.40;99.90
18597;DHT22;9428;50.950;6.912;2023-07-16T01:16:19;20.40;99.90
18597;DHT22;9428;50.950;6.912;2023-07-16T01:19:06;20.40;99.90
18597;DHT22;9428;50.950;6.912;2023-07-16T01:22:03;20.30;99.90
18597;DHT22;9428;50.950;6.912;2023-07-16T01:25:26;20.30;99.90
18597;DHT22;9428;50.950;6.912;2023-07-16T01:28:33;20.30;99.90
18597;DHT22;9428;50.950;6.912;2023-07-16T01:31:27;20.30;99.90
18597;DHT22;9428;50.950;6.912;2023-07-16T01:34:15;20.30;99.90
18597;DHT22;9428;50.950;6.912;2023-07-16T01:37:03;20.30;99.90
18597;DHT22;9428;50.950;6.912;2023-07-16T01:39:50;20.30;99.90
18597;DHT22;9428;50.950;6.912;2023-07-16T01:42:38;20.20;99.90
18597;DHT22;9428;50.950;6.912;2023-07-16T01:45:25;20.00;99.90
18597;DHT22;9428;50.950;6.912;2023-07-16T01:48:24;20.20;99.90
18597;DHT22;9428;50.950;6.912;2023-07-16T01:51:15;20.30;99.90
18597;DHT22;9428;50.950;6.912;2023-07-16T01:54:03;20.20;99.90
18597;DHT22;9428;50.950;6.912;2023-07-16T01:56:50;20.20;99.90
18597;DHT22;9428;50.950;6.912;2023-07-16T01:59:37;20.10;99.90
18597;DHT22;9428;50.950;6.912;2023-07-16T02:02:24;20.20;99.90
18597;DHT22;9428;50.950;6.912;2023-07-16T02:05:14;20.20;99.90
18597;DHT22;9428;50.950;6.912;2023-07-16T02:08:01;20.10;99.90
18597;DHT22;9428;50.950;6.912;2023-07-16T02:10:48;20.20;99.90
18597;DHT22;9428;50.950;6.912;2023-07-16T02:13:36;20.10;99.90
18597;DHT22;9428;50.950;6.912;2023-07-16T02:16:23;20.00;99.90
18597;DHT22;9428;50.950;6.912;2023-07-16T02:19:10;20.00;99.90
18597;DHT22;9428;50.950;6.912;2023-07-16T02:21:59;20.00;99.90
18597;DHT22;9428;50.950;6.912;2023-07-16T02:24:46;19.90;99.90
18597;DHT22;9428;50.950;6.912;2023-07-16T02:27:33;19.90;99.90
18597;DHT22;9428;50.950;6.912;2023-07-16T02:30:20;19.90;99.90
18597;DHT22;9428;50.950;6.912;2023-07-16T02:33:07;19.90;99.90
18597;DHT22;9428;50.950;6.912;2023-07-16T02:35:55;19.90;99.90
18597;DHT22;9428;50.950;6.912;2023-07-16T02:38:43;19.80;99.90
18597;DHT22;9428;50.950;6.912;2023-07-16T02:41:30;19.70;99.90
18597;DHT22;9428;50.950;6.912;2023-07-16T02:44:18;19.70;99.90
18597;DHT22;9428;50.950;6.912;2023-07-16T02:47:05;19.60;99.90
18597;DHT22;9428;50.950;6.912;2023-07-16T02:49:52;19.70;99.90
18597;DHT22;9428;50.950;6.912;2023-07-16T02:52:39;19.60;99.90
18597;DHT22;9428;50.950;6.912;2023-07-16T02:55:28;19.50;99.90
18597;DHT22;9428;50.950;6.912;2023-07-16T02:58:15;19.60;99.90
18597;DHT22;9428;50.950;6.912;2023-07-16T03:01:03;19.60;99.90
18597;DHT22;9428;50.950;6.912;2023-07-16T03:03:50;19.60;99.90
18597;DHT22;9428;50.950;6.912;2023-07-16T03:06:37;19.50;99.90
18597;DHT22;9428;50.950;6.912;2023-07-16T03:09:24;19.60;99.90
18597;DHT22;9428;50.950;6.912;2023-07-16T03:12:13;19.50;99.90
18597;DHT22;9428;50.950;6.912;2023-07-16T03:15:00;19.60;99.90
18597;DHT22;9428;50.950;6.912;2023-07-16T03:17:47;19.50;99.90
18597;DHT22;9428;50.950;6.912;2023-07-16T03:20:35;19.60;99.90
18597;DHT22;9428;50.950;6.912;2023-07-16T03:23:23;19.60;99.90
18597;DHT22;9428;50.950;6.912;2023-07-16T03:26:10;19.50;99.90
18597;DHT22;9428;50.950;6.912;2023-07-16T03:28:59;19.40;99.90
18597;DHT22;9428;50.950;6.912;2023-07-16T03:31:46;19.50;99.90
18597;DHT22;9428;50.950;6.912;2023-07-16T03:34:33;19.50;99.90
18597;DHT22;9428;50.950;6.912;2023-07-16T03:37:21;19.50;99.90
18597;DHT22;9428;50.950;6.912;2023-07-16T03:40:14;19.40;99.90
18597;DHT22;9428;50.950;6.912;2023-07-16T03:43:02;19.30;99.90
18597;DHT22;9428;50.950;6.912;2023-07-16T03:45:50;19.30;99.90
18597;DHT22;9428;50.950;6.912;2023-07-16T03:48:38;19.30;99.90
18597;DHT22;9428;50.950;6.912;2023-07-16T03:51:25;19.30;99.90
18597;DHT22;9428;50.950;6.912;2023-07-16T03:54:12;19.30;99.90
18597;DHT22;9428;50.950;6.912;2023-07-16T03:57:00;19.40;99.90
18597;DHT22;9428;50.950;6.912;2023-07-16T03:59:48;19.40;99.90
18597;DHT22;9428;50.950;6.912;2023-07-16T04:02:37;19.20;99.90
18597;DHT22;9428;50.950;6.912;2023-07-16T04:05:24;19.30;99.90
18597;DHT22;9428;50.950;6.912;2023-07-16T04:08:11;19.40;99.90
18597;DHT22;9428;50.950;6.912;2023-07-16T04:10:59;19.30;99.90
18597;DHT22;9428;50.950;6.912;2023-07-16T04:13:46;19.30;99.90
18597;DHT22;9428;50.950;6.912;2023-07-16T04:16:33;19.40;99.90
18597;DHT22;9428;50.950;6.912;2023-07-16T04:19:22;19.40;99.90
18597;DHT22;9428;50.950;6.912;2023-07-16T04:22:09;19.30;99.90
18597;DHT22;9428;50.950;6.912;2023-07-16T04:24:56;19.20;99.90
18597;DHT22;9428;50.950;6.912;2023-07-16T04:27:44;19.30;99.90
18597;DHT22;9428;50.950;6.912;2023-07-16T04:30:31;19.20;99.90
18597;DHT22;9428;50.950;6.912;2023-07-16T04:33:19;19.20;99.90
18597;DHT22;9428;50.950;6.912;2023-07-16T04:36:07;19.10;99.90
18597;DHT22;9428;50.950;6.912;2023-07-16T04:38:54;19.30;99.90
18597;DHT22;9428;50.950;6.912;2023-07-16T04:41:42;19.30;99.90
18597;DHT22;9428;50.950;6.912;2023-07-16T04:44:29;19.30;99.90
18597;DHT22;9428;50.950;6.912;2023-07-16T04:47:16;19.30;99.90
18597;DHT22;9428;50.950;6.912;2023-07-16T04:50:04;19.20;99.90
18597;DHT22;9428;50.950;6.912;2023-07-16T04:52:53;19.30;99.90
18597;DHT22;9428;50.950;6.912;2023-07-16T04:55:40;19.30;99.90
18597;DHT22;9428;50.950;6.912;2023-07-16T04:58:27;19.30;99.90
18597;DHT22;9428;50.950;6.912;2023-07-16T05:01:14;19.30;99.90
18597;DHT22;9428;50.950;6.912;2023-07-16T05:04:02;19.30;99.90
18597;DHT22;9428;50.950;6.912;2023-07-16T05:06:49;19.30;99.90
18597;DHT22;9428;50.950;6.912;2023-07-16T05:09:37;19.30;99.90
18597;DHT22;9428;50.950;6.912;2023-07-16T05:12:25;19.40;99.90
18597;DHT22;9428;50.950;6.912;2023-07-16T05:15:12;19.40;99.90
18597;DHT22;9428;50.950;6.912;2023-07-16T05:17:59;19.40;99.90
18597;DHT22;9428;50.950;6.912;2023-07-16T05:20:47;19.40;99.90
18597;DHT22;9428;50.950;6.912;2023-07-16T05:23:34;19.50;99.90
18597;DHT22;9428;50.950;6.912;2023-07-16T05:26:23;19.40;99.90
18597;DHT22;9428;50.950;6.912;2023-07-16T05:29:10;19.50;99.90
18597;DHT22;9428;50.950;6.912;2023-07-16T05:31:57;19.50;99.90
18597;DHT22;9428;50.950;6.912;2023-07-16T05:34:44;19.50;99.90
18597;DHT22;9428;50.950;6.912;2023-07-16T05:37:32;19.60;99.90
18597;DHT22;9428;50.950;6.912;2023-07-16T05:40:19;19.60;99.90
18597;DHT22;9428;50.950;6.912;2023-07-16T05:43:07;19.50;99.90
18597;DHT22;9428;50.950;6.912;2023-07-16T05:45:55;19.60;99.90
18597;DHT22;9428;50.950;6.912;2023-07-16T05:48:42;19.60;99.90
18597;DHT22;9428;50.950;6.912;2023-07-16T05:51:29;19.60;99.90
18597;DHT22;9428;50.950;6.912;2023-07-16T05:54:16;19.70;99.90
18597;DHT22;9428;50.950;6.912;2023-07-16T05:57:04;19.60;99.90
18597;DHT22;9428;50.950;6.912;2023-07-16T05:59:53;19.70;99.90
18597;DHT22;9428;50.950;6.912;2023-07-16T06:02:40;19.70;99.90
18597;DHT22;9428;50.950;6.912;2023-07-16T06:05:28;19.60;99.90
18597;DHT22;9428;50.950;6.912;2023-07-16T06:08:18;19.70;99.90
18597;DHT22;9428;50.950;6.912;2023-07-16T06:11:06;19.70;99.90
18597;DHT22;9428;50.950;6.912;2023-07-16T06:13:53;19.70;99.90
18597;DHT22;9428;50.950;6.912;2023-07-16T06:16:42;19.70;99.90
18597;DHT22;9428;50.950;6.912;2023-07-16T06:19:30;19.70;99.90
18597;DHT22;9428;50.950;6.912;2023-07-16T06:22:17;19.70;99.90
18597;DHT22;9428;50.950;6.912;2023-07-16T06:25:05;19.70;99.90
18597;DHT22;9428;50.950;6.912;2023-07-16T06:27:52;19.80;99.90
18597;DHT22;9428;50.950;6.912;2023-07-16T06:30:39;19.80;99.90
18597;DHT22;9428;50.950;6.912;2023-07-16T06:33:28;19.80;99.90
18597;DHT22;9428;50.950;6.912;2023-07-16T06:36:15;19.90;99.90
18597;DHT22;9428;50.950;6.912;2023-07-16T06:39:03;20.00;99.90
18597;DHT22;9428;50.950;6.912;2023-07-16T06:41:50;20.00;99.90
18597;DHT22;9428;50.950;6.912;2023-07-16T06:44:37;20.20;99.90
18597;DHT22;9428;50.950;6.912;2023-07-16T06:47:25;20.10;99.90
18597;DHT22;9428;50.950;6.912;2023-07-16T06:50:13;20.00;99.90
18597;DHT22;9428;50.950;6.912;2023-07-16T06:53:00;20.00;99.90
18597;DHT22;9428;50.950;6.912;2023-07-16T06:55:48;20.00;99.90
18597;DHT22;9428;50.950;6.912;2023-07-16T06:58:35;20.10;99.90
18597;DHT22;9428;50.950;6.912;2023-07-16T07:01:22;20.10;99.90
18597;DHT22;9428;50.950;6.912;2023-07-16T07:04:09;20.00;99.90
18597;DHT22;9428;50.950;6.912;2023-07-16T07:06:58;20.10;99.90
18597;DHT22;9428;50.950;6.912;2023-07-16T07:09:47;20.10;99.90
18597;DHT22;9428;50.950;6.912;2023-07-16T07:12:35;20.20;99.90
18597;DHT22;9428;50.950;6.912;2023-07-16T07:15:23;20.10;99.90
18597;DHT22;9428;50.950;6.912;2023-07-16T07:18:10;20.10;99.90
18597;DHT22;9428;50.950;6.912;2023-07-16T07:20:57;20.20;99.90
18597;DHT22;9428;50.950;6.912;2023-07-16T07:23:46;20.20;99.90
18597;DHT22;9428;50.950;6.912;2023-07-16T07:26:33;20.30;99.90
18597;DHT22;9428;50.950;6.912;2023-07-16T07:29:20;20.40;99.90
18597;DHT22;9428;50.950;6.912;2023-07-16T07:32:08;20.40;99.90
18597;DHT22;9428;50.950;6.912;2023-07-16T07:34:55;20.60;99.90
18597;DHT22;9428;50.950;6.912;2023-07-16T07:37:42;20.60;99.90
18597;DHT22;9428;50.950;6.912;2023-07-16T07:40:31;20.70;99.90
18597;DHT22;9428;50.950;6.912;2023-07-16T07:43:18;20.60;99.90
18597;DHT22;9428;50.950;6.912;2023-07-16T07:46:05;19.60;99.90
18597;DHT22;9428;50.950;6.912;2023-07-16T07:48:52;20.70;99.90
18597;DHT22;9428;50.950;6.912;2023-07-16T07:51:40;20.90;99.90
18597;DHT22;9428;50.950;6.912;2023-07-16T07:54:27;21.00;99.90
18597;DHT22;9428;50.950;6.912;2023-07-16T07:57:16;21.20;99.90
18597;DHT22;9428;50.950;6.912;2023-07-16T08:00:04;21.30;99.90
18597;DHT22;9428;50.950;6.912;2023-07-16T08:02:52;21.30;99.90
18597;DHT22;9428;50.950;6.912;2023-07-16T08:05:39;21.30;99.90
18597;DHT22;9428;50.950;6.912;2023-07-16T08:08:27;21.20;99.90
18597;DHT22;9428;50.950;6.912;2023-07-16T08:11:14;21.30;99.90
18597;DHT22;9428;50.950;6.912;2023-07-16T08:14:03;21.40;99.90
18597;DHT22;9428;50.950;6.912;2023-07-16T08:16:50;21.40;99.90
18597;DHT22;9428;50.950;6.912;2023-07-16T08:19:38;21.40;99.90
18597;DHT22;9428;50.950;6.912;2023-07-16T08:22:25;21.40;99.90
18597;DHT22;9428;50.950;6.912;2023-07-16T08:25:12;21.60;99.90
18597;DHT22;9428;50.950;6.912;2023-07-16T08:28:02;21.60;99.90
18597;DHT22;9428;50.950;6.912;2023-07-16T08:30:50;21.60;99.90
18597;DHT22;9428;50.950;6.912;2023-07-16T08:33:37;21.70;99.90
18597;DHT22;9428;50.950;6.912;2023-07-16T08:36:25;21.80;99.90
18597;DHT22;9428;50.950;6.912;2023-07-16T08:39:13;21.80;99.90
18597;DHT22;9428;50.950;6.912;2023-07-16T08:42:01;21.60;99.90
18597;DHT22;9428;50.950;6.912;2023-07-16T08:44:49;21.60;99.90
18597;DHT22;9428;50.950;6.912;2023-07-16T08:47:38;21.50;99.90
18597;DHT22;9428;50.950;6.912;2023-07-16T08:50:25;21.70;99.90
18597;DHT22;9428;50.950;6.912;2023-07-16T08:53:15;22.00;99.90
18597;DHT22;9428;50.950;6.912;2023-07-16T08:56:03;21.90;99.90
18597;DHT22;9428;50.950;6.912;2023-07-16T08:58:54;22.10;99.90
18597;DHT22;9428;50.950;6.912;2023-07-16T09:01:43;21.90;99.90
18597;DHT22;9428;50.950;6.912;2023-07-16T09:04:32;21.70;99.90
18597;DHT22;9428;50.950;6.912;2023-07-16T09:07:19;21.80;99.90
18597;DHT22;9428;50.950;6.912;2023-07-16T09:10:07;21.80;99.90
18597;DHT22;9428;50.950;6.912;2023-07-16T09:12:58;21.70;99.90
18597;DHT22;9428;50.950;6.912;2023-07-16T09:15:50;21.60;99.90
18597;DHT22;9428;50.950;6.912;2023-07-16T09:18:40;21.60;99.90
18597;DHT22;9428;50.950;6.912;2023-07-16T09:21:31;21.80;99.90
18597;DHT22;9428;50.950;6.912;2023-07-16T09:24:19;22.00;99.90
18597;DHT22;9428;50.950;6.912;2023-07-16T09:27:07;22.20;99.90
18597;DHT22;9428;50.950;6.912;2023-07-16T09:29:58;22.20;99.90
18597;DHT22;9428;50.950;6.912;2023-07-16T09:32:48;22.20;99.90
18597;DHT22;9428;50.950;6.912;2023-07-16T09:35:36;22.30;99.90
18597;DHT22;9428;50.950;6.912;2023-07-16T09:38:24;22.50;99.90
18597;DHT22;9428;50.950;6.912;2023-07-16T09:41:13;22.60;99.90
18597;DHT22;9428;50.950;6.912;2023-07-16T09:44:01;22.80;99.90
18597;DHT22;9428;50.950;6.912;2023-07-16T09:46:48;22.70;99.90
18597;DHT22;9428;50.950;6.912;2023-07-16T09:49:35;22.80;99.90
18597;DHT22;9428;50.950;6.912;2023-07-16T09:52:24;22.50;99.90
18597;DHT22;9428;50.950;6.912;2023-07-16T09:55:14;22.40;99.90
18597;DHT22;9428;50.950;6.912;2023-07-16T09:58:07;22.60;99.90
18597;DHT22;9428;50.950;6.912;2023-07-16T10:00:55;22.80;99.90
18597;DHT22;9428;50.950;6.912;2023-07-16T10:03:48;22.60;99.90
18597;DHT22;9428;50.950;6.912;2023-07-16T10:06:36;22.40;99.90
18597;DHT22;9428;50.950;6.912;2023-07-16T10:09:33;22.50;99.90
18597;DHT22;9428;50.950;6.912;2023-07-16T10:12:23;22.70;99.90
18597;DHT22;9428;50.950;6.912;2023-07-16T10:15:12;22.90;99.90
18597;DHT22;9428;50.950;6.912;2023-07-16T10:17:59;22.90;99.90
18597;DHT22;9428;50.950;6.912;2023-07-16T10:20:48;22.90;99.90
18597;DHT22;9428;50.950;6.912;2023-07-16T10:23:39;23.10;99.90
18597;DHT22;9428;50.950;6.912;2023-07-16T10:26:27;23.30;99.90
18597;DHT22;9428;50.950;6.912;2023-07-16T10:29:16;23.30;99.90
18597;DHT22;9428;50.950;6.912;2023-07-16T10:32:06;23.40;99.90
18597;DHT22;9428;50.950;6.912;2023-07-16T10:34:54;23.40;99.90
18597;DHT22;9428;50.950;6.912;2023-07-16T10:37:41;23.40;99.90
18597;DHT22;9428;50.950;6.912;2023-07-16T10:40:28;23.30;99.90
18597;DHT22;9428;50.950;6.912;2023-07-16T10:43:16;23.40;99.90
18597;DHT22;9428;50.950;6.912;2023-07-16T10:46:04;23.20;99.90
18597;DHT22;9428;50.950;6.912;2023-07-16T10:48:51;23.20;99.90
18597;DHT22;9428;50.950;6.912;2023-07-16T10:51:38;23.30;99.90
18597;DHT22;9428;50.950;6.912;2023-07-16T10:54:26;23.10;99.90
18597;DHT22;9428;50.950;6.912;2023-07-16T10:57:13;23.30;99.90
18597;DHT22;9428;50.950;6.912;2023-07-16T11:00:02;23.30;99.90
18597;DHT22;9428;50.950;6.912;2023-07-16T11:02:52;22.80;99.90
18597;DHT22;9428;50.950;6.912;2023-07-16T11:05:39;23.10;99.90
18597;DHT22;9428;50.950;6.912;2023-07-16T11:08:26;23.30;99.90
18597;DHT22;9428;50.950;6.912;2023-07-16T11:11:13;23.30;99.90
18597;DHT22;9428;50.950;6.912;2023-07-16T11:14:04;23.40;99.90
18597;DHT22;9428;50.950;6.912;2023-07-16T11:16:51;23.20;99.90
18597;DHT22;9428;50.950;6.912;2023-07-16T11:19:40;23.40;99.90
18597;DHT22;9428;50.950;6.912;2023-07-16T11:22:28;23.40;99.90
18597;DHT22;9428;50.950;6.912;2023-07-16T11:25:16;23.50;99.90
18597;DHT22;9428;50.950;6.912;2023-07-16T11:28:04;23.50;99.90
18597;DHT22;9428;50.950;6.912;2023-07-16T11:30:51;23.50;99.90
18597;DHT22;9428;50.950;6.912;2023-07-16T11:33:42;23.50;99.90
18597;DHT22;9428;50.950;6.912;2023-07-16T11:36:30;23.50;99.90
18597;DHT22;9428;50.950;6.912;2023-07-16T11:39:18;23.50;99.90
18597;DHT22;9428;50.950;6.912;2023-07-16T11:42:06;23.50;99.90
18597;DHT22;9428;50.950;6.912;2023-07-16T11:44:53;23.60;99.90
18597;DHT22;9428;50.950;6.912;2023-07-16T11:47:41;23.70;99.90
18597;DHT22;9428;50.950;6.912;2023-07-16T11:50:28;23.60;99.90
18597;DHT22;9428;50.950;6.912;2023-07-16T11:53:17;23.70;99.90
18597;DHT22;9428;50.950;6.912;2023-07-16T11:56:04;23.70;99.90
18597;DHT22;9428;50.950;6.912;2023-07-16T11:58:51;23.60;99.90
18597;DHT22;9428;50.950;6.912;2023-07-16T12:01:39;23.40;99.90
18597;DHT22;9428;50.950;6.912;2023-07-16T12:04:26;23.60;99.90
18597;DHT22;9428;50.950;6.912;2023-07-16T12:07:13;23.70;99.90
18597;DHT22;9428;50.950;6.912;2023-07-16T12:10:03;23.80;99.90
18597;DHT22;9428;50.950;6.912;2023-07-16T12:12:50;23.90;99.90
18597;DHT22;9428;50.950;6.912;2023-07-16T12:15:37;23.80;99.90
18597;DHT22;9428;50.950;6.912;2023-07-16T12:18:25;23.80;99.90
18597;DHT22;9428;50.950;6.912;2023-07-16T12:21:12;23.60;99.90
18597;DHT22;9428;50.950;6.912;2023-07-16T12:24:00;23.70;99.90
18597;DHT22;9428;50.950;6.912;2023-07-16T12:26:48;23.80;99.90
18597;DHT22;9428;50.950;6.912;2023-07-16T12:29:35;23.90;99.90
18597;DHT22;9428;50.950;6.912;2023-07-16T12:32:22;23.70;99.90
18597;DHT22;9428;50.950;6.912;2023-07-16T12:35:10;23.40;99.90
18597;DHT22;9428;50.950;6.912;2023-07-16T12:37:57;23.50;99.90
18597;DHT22;9428;50.950;6.912;2023-07-16T12:40:45;23.50;99.90
18597;DHT22;9428;50.950;6.912;2023-07-16T12:43:34;23.50;99.90
18597;DHT22;9428;50.950;6.912;2023-07-16T12:46:21;23.60;99.90
18597;DHT22;9428;50.950;6.912;2023-07-16T12:49:08;23.70;99.90
18597;DHT22;9428;50.950;6.912;2023-07-16T12:51:55;23.60;99.90
18597;DHT22;9428;50.950;6.912;2023-07-16T12:54:42;23.40;99.90
18597;DHT22;9428;50.950;6.912;2023-07-16T12:57:30;23.50;99.90
18597;DHT22;9428;50.950;6.912;2023-07-16T13:00:19;23.70;99.90
18597;DHT22;9428;50.950;6.912;2023-07-16T13:03:07;23.70;99.90
18597;DHT22;9428;50.950;6.912;2023-07-16T13:05:57;23.80;99.90
18597;DHT22;9428;50.950;6.912;2023-07-16T13:08:44;23.70;99.50
18597;DHT22;9428;50.950;6.912;2023-07-16T13:11:31;23.80;99.90
18597;DHT22;9428;50.950;6.912;2023-07-16T13:14:19;23.70;99.90
18597;DHT22;9428;50.950;6.912;2023-07-16T13:17:07;23.70;99.90
18597;DHT22;9428;50.950;6.912;2023-07-16T13:19:55;23.70;99.90
18597;DHT22;9428;50.950;6.912;2023-07-16T13:22:42;23.50;99.90
18597;DHT22;9428;50.950;6.912;2023-07-16T13:25:29;23.70;99.90
18597;DHT22;9428;50.950;6.912;2023-07-16T13:28:16;23.60;99.90
18597;DHT22;9428;50.950;6.912;2023-07-16T13:31:03;23.70;99.90
18597;DHT22;9428;50.950;6.912;2023-07-16T13:33:52;23.90;99.90
18597;DHT22;9428;50.950;6.912;2023-07-16T13:36:39;23.90;99.90
18597;DHT22;9428;50.950;6.912;2023-07-16T13:39:26;23.90;99.60
18597;DHT22;9428;50.950;6.912;2023-07-16T13:42:13;23.90;99.90
18597;DHT22;9428;50.950;6.912;2023-07-16T13:45:01;23.90;99.90
18597;DHT22;9428;50.950;6.912;2023-07-16T13:47:49;24.00;99.60
18597;DHT22;9428;50.950;6.912;2023-07-16T13:50:39;24.00;99.10
18597;DHT22;9428;50.950;6.912;2023-07-16T13:53:26;23.80;98.20
18597;DHT22;9428;50.950;6.912;2023-07-16T13:56:14;23.70;99.20
18597;DHT22;9428;50.950;6.912;2023-07-16T13:59:01;23.60;99.90
18597;DHT22;9428;50.950;6.912;2023-07-16T14:01:58;23.90;98.90
18597;DHT22;9428;50.950;6.912;2023-07-16T14:04:46;24.00;98.80
18597;DHT22;9428;50.950;6.912;2023-07-16T14:07:35;23.70;98.70
18597;DHT22;9428;50.950;6.912;2023-07-16T14:10:23;23.70;98.40
18597;DHT22;9428;50.950;6.912;2023-07-16T14:13:10;23.50;98.80
18597;DHT22;9428;50.950;6.912;2023-07-16T14:15:58;23.60;98.60
18597;DHT22;9428;50.950;6.912;2023-07-16T14:18:49;23.70;99.20
18597;DHT22;9428;50.950;6.912;2023-07-16T14:21:37;23.90;99.80
18597;DHT22;9428;50.950;6.912;2023-07-16T14:24:25;24.10;98.00
18597;DHT22;9428;50.950;6.912;2023-07-16T14:27:12;24.30;98.50
18597;DHT22;9428;50.950;6.912;2023-07-16T14:30:00;24.40;98.50
18597;DHT22;9428;50.950;6.912;2023-07-16T14:32:47;24.20;96.70
18597;DHT22;9428;50.950;6.912;2023-07-16T14:35:34;24.10;96.90
18597;DHT22;9428;50.950;6.912;2023-07-16T14:38:21;23.90;96.70
18597;DHT22;9428;50.950;6.912;2023-07-16T14:41:10;24.00;98.40
18597;DHT22;9428;50.950;6.912;2023-07-16T14:43:57;24.10;97.10
18597;DHT22;9428;50.950;6.912;2023-07-16T14:46:45;24.00;98.60
18597;DHT22;9428;50.950;6.912;2023-07-16T14:49:32;24.10;97.80
18597;DHT22;9428;50.950;6.912;2023-07-16T14:52:19;24.20;98.80
18597;DHT22;9428;50.950;6.912;2023-07-16T14:55:07;24.20;97.90
18597;DHT22;9428;50.950;6.912;2023-07-16T14:57:56;24.10;98.70
18597;DHT22;9428;50.950;6.912;2023-07-16T15:00:43;24.00;99.00
18597;DHT22;9428;50.950;6.912;2023-07-16T15:03:30;24.10;97.40
18597;DHT22;9428;50.950;6.912;2023-07-16T15:06:18;24.20;97.60
18597;DHT22;9428;50.950;6.912;2023-07-16T15:09:05;24.20;98.00
18597;DHT22;9428;50.950;6.912;2023-07-16T15:11:53;24.20;97.10
18597;DHT22;9428;50.950;6.912;2023-07-16T15:14:41;24.10;97.10
18597;DHT22;9428;50.950;6.912;2023-07-16T15:17:29;24.00;97.10
18597;DHT22;9428;50.950;6.912;2023-07-16T15:20:16;24.00;96.90
18597;DHT22;9428;50.950;6.912;2023-07-16T15:23:03;24.10;97.70
18597;DHT22;9428;50.950;6.912;2023-07-16T15:25:50;24.20;97.10
18597;DHT22;9428;50.950;6.912;2023-07-16T15:28:38;24.10;97.20
18597;DHT22;9428;50.950;6.912;2023-07-16T15:31:29;24.00;98.10
18597;DHT22;9428;50.950;6.912;2023-07-16T15:34:16;24.00;98.00
18597;DHT22;9428;50.950;6.912;2023-07-16T15:37:04;24.00;97.30
18597;DHT22;9428;50.950;6.912;2023-07-16T15:39:51;24.10;97.50
18597;DHT22;9428;50.950;6.912;2023-07-16T15:42:38;24.10;97.40
18597;DHT22;9428;50.950;6.912;2023-07-16T15:45:25;24.00;97.60
18597;DHT22;9428;50.950;6.912;2023-07-16T15:48:14;24.10;98.90
18597;DHT22;9428;50.950;6.912;2023-07-16T15:51:02;24.10;97.60
18597;DHT22;9428;50.950;6.912;2023-07-16T15:53:52;24.00;97.10
18597;DHT22;9428;50.950;6.912;2023-07-16T15:56:40;24.00;96.90
18597;DHT22;9428;50.950;6.912;2023-07-16T15:59:27;24.10;99.30
18597;DHT22;9428;50.950;6.912;2023-07-16T16:02:14;24.20;97.50
18597;DHT22;9428;50.950;6.912;2023-07-16T16:05:04;24.10;97.90
18597;DHT22;9428;50.950;6.912;2023-07-16T16:08:10;24.00;97.70
18597;DHT22;9428;50.950;6.912;2023-07-16T16:10:57;24.20;98.30
18597;DHT22;9428;50.950;6.912;2023-07-16T16:13:44;24.10;96.80
18597;DHT22;9428;50.950;6.912;2023-07-16T16:16:31;24.10;96.90
18597;DHT22;9428;50.950;6.912;2023-07-16T16:19:19;24.10;96.90
18597;DHT22;9428;50.950;6.912;2023-07-16T16:22:07;24.20;97.90
18597;DHT22;9428;50.950;6.912;2023-07-16T16:24:54;24.20;97.60
18597;DHT22;9428;50.950;6.912;2023-07-16T16:27:43;24.20;97.60
18597;DHT22;9428;50.950;6.912;2023-07-16T16:30:31;24.10;97.70
18597;DHT22;9428;50.950;6.912;2023-07-16T16:33:18;24.30;97.70
18597;DHT22;9428;50.950;6.912;2023-07-16T16:36:09;24.20;97.70
18597;DHT22;9428;50.950;6.912;2023-07-16T16:38:58;24.10;97.20
18597;DHT22;9428;50.950;6.912;2023-07-16T16:41:45;24.00;97.70
18597;DHT22;9428;50.950;6.912;2023-07-16T16:44:33;24.20;97.90
18597;DHT22;9428;50.950;6.912;2023-07-16T16:47:20;23.90;98.60
18597;DHT22;9428;50.950;6.912;2023-07-16T16:50:08;24.00;97.90
18597;DHT22;9428;50.950;6.912;2023-07-16T16:52:55;24.10;98.40
18597;DHT22;9428;50.950;6.912;2023-07-16T16:55:46;24.30;97.20
18597;DHT22;9428;50.950;6.912;2023-07-16T16:58:33;24.50;97.60
18597;DHT22;9428;50.950;6.912;2023-07-16T17:01:20;24.50;96.90
18597;DHT22;9428;50.950;6.912;2023-07-16T17:04:08;24.50;97.20
18597;DHT22;9428;50.950;6.912;2023-07-16T17:06:55;24.30;96.30
18597;DHT22;9428;50.950;6.912;2023-07-16T17:09:44;24.30;97.00
18597;DHT22;9428;50.950;6.912;2023-07-16T17:12:33;24.20;96.00
18597;DHT22;9428;50.950;6.912;2023-07-16T17:15:20;24.10;96.40
18597;DHT22;9428;50.950;6.912;2023-07-16T17:18:08;24.10;95.90
18597;DHT22;9428;50.950;6.912;2023-07-16T17:20:55;24.00;96.40
18597;DHT22;9428;50.950;6.912;2023-07-16T17:23:43;24.00;96.20
18597;DHT22;9428;50.950;6.912;2023-07-16T17:26:31;23.80;96.30
18597;DHT22;9428;50.950;6.912;2023-07-16T17:29:19;23.80;96.60
18597;DHT22;9428;50.950;6.912;2023-07-16T17:32:07;23.80;97.70
18597;DHT22;9428;50.950;6.912;2023-07-16T17:34:55;23.90;97.90
18597;DHT22;9428;50.950;6.912;2023-07-16T17:37:42;23.80;98.10
18597;DHT22;9428;50.950;6.912;2023-07-16T17:40:30;24.30;97.40
18597;DHT22;9428;50.950;6.912;2023-07-16T17:43:17;23.90;98.00
18597;DHT22;9428;50.950;6.912;2023-07-16T17:46:06;23.90;97.20
18597;DHT22;9428;50.950;6.912;2023-07-16T17:48:53;23.80;97.80
18597;DHT22;9428;50.950;6.912;2023-07-16T17:51:40;23.80;97.30
18597;DHT22;9428;50.950;6.912;2023-07-16T17:54:28;23.80;97.70
18597;DHT22;9428;50.950;6.912;2023-07-16T17:57:15;23.90;97.60